KBLU/BLU METAR and TAF weather

Enter ICAO airport designator
Station Type Date Time Source
KBLU METAR 2019/12/12 12:08 UTC NOAA

KBLU 121208Z AUTO 19011G20KT 1/2SM -RA FG VV002 06/05 A3026 RMK AO2 P0004 T00560050


Station Type Date Time Source
KBLU Decoded METAR 2019/12/12 12:08 UTC NOAA

BLUE CANYON AIRPORT, CA, United States (KBLU) 39-17N 120-42W 1609M
Dec 12, 2019 - 07:08 AM EST / 2019.12.12 1208 UTC
Wind: from the S (190 degrees) at 13 MPH (11 KT) gusting to 23 MPH (20 KT):0
Visibility: 1/2 mile(s):0
Sky conditions: obscured
Weather: light rain; fog
Precipitation last hour: 0.04 inches
Temperature: 42.1 F (5.6 C)
Dew Point: 41.0 F (5.0 C)
Relative Humidity: 95%
Pressure (altimeter): 30.26 in. Hg (1024 hPa)
ob: KBLU 121208Z AUTO 19011G20KT 1/2SM -RA FG VV002 06/05 A3026 RMK AO2 P0004 T00560050
cycle: 12

Station Type Date Time Source
KBLU TAF UTC NOAA

Error!

Example: see airport list